Monday, December 17, 2018, 10:09 AM GMT
Back to Local

CWER, Ile D'Orleans Automated Reporting Station

Location: , , Canada Lat: 47
Local Time: 10:09 AM GMT (10:09 GMT) Lon: -70.817
Time Zone: GMT Elev: 16 ft

Show me the last for .
Show Coded

Time T Td Feel RH Dir Speed Gust Alt SLP Vis Weather Sky Remarks
2018-12-17 09:00 - - - 0 20° 5 - - - 0 None
2018-12-17 08:00 - - - 0 40° 8 - - - 0 None
2018-12-17 07:00 - - - 0 50° 8 - - - 0 None
2018-12-17 06:00 - - - 0 40° 10 - - - 0 None
2018-12-17 05:00 - - - 0 50° 10 - - - 0 None
2018-12-17 04:00 - - - 0 50° 14 - - - 0 None
2018-12-17 03:00 - - - 0 50° 15 - - - 0 None
2018-12-17 02:00 - - - 0 50° 14 - - - 0 None
2018-12-17 01:00 - - - 0 40° 12 - - - 0 None
2018-12-17 00:00 - - - 0 60° 6 - - - 0 None
2018-12-16 23:00 - - - 0 40° 7 - - - 0 None
2018-12-16 22:00 - - - 0 30° 3 - - - 0 None
2018-12-16 21:00 - - - 0 - Calm - - - 0 None
2018-12-16 20:00 - - - 0 20° 2 - - - 0 None
2018-12-16 19:00 - - - 0 50° 1 - - - 0 None
2018-12-16 18:00 - - - 0 60° 6 - - - 0 None
2018-12-16 17:00 - - - 0 130° 1 - - - 0 None
2018-12-16 16:00 - - - 0 50° 3 - - - 0 None
2018-12-16 15:00 - - - 0 220° 2 - - - 0 None
2018-12-16 14:00 - - - 0 40° 6 - - - 0 None
2018-12-16 13:00 - - - 0 20° 5 - - - 0 None
2018-12-16 12:00 - - - 0 20° 2 - - - 0 None
2018-12-16 11:00 - - - 0 240° 1 - - - 0 None

Support USWX by starting your Amazon purchase here.